createdAt,value
2019-05-22T00:02:38.812Z,17.75
2019-05-22T00:05:41.559Z,17.80
2019-05-22T00:08:44.979Z,17.83
2019-05-22T00:11:48.668Z,17.88
2019-05-22T00:14:52.351Z,17.93
2019-05-22T00:17:55.753Z,18.01
2019-05-22T00:20:59.727Z,17.92
2019-05-22T00:24:03.466Z,17.96
2019-05-22T00:27:06.101Z,18.01
2019-05-22T00:30:09.913Z,18.03
2019-05-22T00:33:11.865Z,18.07
2019-05-22T00:36:14.312Z,18.09
2019-05-22T00:39:18.618Z,18.08
2019-05-22T00:42:20.556Z,18.14
2019-05-22T00:45:24.274Z,18.09
2019-05-22T00:48:26.311Z,18.01
2019-05-22T00:51:36.041Z,18.02
2019-05-22T00:54:45.989Z,18.02
2019-05-22T00:57:53.157Z,18.01
2019-05-22T01:00:56.829Z,17.99
2019-05-22T01:03:58.862Z,18.01
2019-05-22T01:07:06.465Z,17.97
2019-05-22T01:10:11.149Z,18.03
2019-05-22T01:13:14.938Z,18.00
2019-05-22T01:16:17.047Z,17.96
2019-05-22T01:19:19.534Z,17.97
2019-05-22T01:22:23.300Z,18.00
2019-05-22T01:25:30.901Z,18.05
2019-05-22T01:28:36.405Z,18.05
2019-05-22T01:31:40.974Z,18.07
2019-05-22T01:34:43.368Z,18.07
2019-05-22T01:37:45.972Z,18.07
2019-05-22T01:41:00.854Z,18.04
2019-05-22T01:44:05.148Z,18.09
2019-05-22T01:47:12.469Z,18.11
2019-05-22T01:50:37.927Z,18.13
2019-05-22T01:53:44.048Z,18.08
2019-05-22T01:56:45.991Z,18.03
2019-05-22T01:59:49.949Z,18.00
2019-05-22T02:02:51.988Z,18.01
2019-05-22T02:05:54.624Z,18.04
2019-05-22T02:09:05.081Z,18.03
2019-05-22T02:12:15.077Z,18.04
2019-05-22T02:15:18.467Z,18.02
2019-05-22T02:18:22.815Z,18.00
2019-05-22T02:21:26.420Z,18.02
2019-05-22T02:24:30.236Z,18.03
2019-05-22T02:27:33.859Z,18.03
2019-05-22T02:30:37.783Z,17.98
2019-05-22T02:33:58.190Z,18.04
2019-05-22T02:37:00.591Z,18.15
2019-05-22T02:40:08.657Z,18.10
2019-05-22T02:43:11.201Z,18.08
2019-05-22T02:46:13.912Z,18.06
2019-05-22T02:49:16.974Z,18.10
2019-05-22T02:52:23.909Z,18.13
2019-05-22T02:55:26.580Z,18.14
2019-05-22T02:58:31.272Z,18.19
2019-05-22T03:01:33.940Z,18.26
2019-05-22T03:04:58.261Z,18.26
2019-05-22T03:08:00.939Z,18.31
2019-05-22T03:11:03.618Z,18.25
2019-05-22T03:14:08.823Z,18.29
2019-05-22T03:17:27.516Z,18.30
2019-05-22T03:20:31.778Z,18.24
2019-05-22T03:23:36.602Z,18.19
2019-05-22T03:26:46.475Z,18.28
2019-05-22T03:29:56.130Z,18.30
2019-05-22T03:33:00.601Z,18.23
2019-05-22T03:36:09.223Z,18.27
2019-05-22T03:39:13.355Z,18.25
2019-05-22T03:42:16.580Z,18.25
2019-05-22T03:45:18.754Z,18.31
2019-05-22T03:48:23.303Z,18.39
2019-05-22T03:51:25.834Z,18.39
2019-05-22T03:54:27.942Z,18.39
2019-05-22T03:57:30.365Z,18.35
2019-05-22T04:00:33.108Z,18.30
2019-05-22T04:03:35.836Z,18.32
2019-05-22T04:06:39.817Z,18.30
2019-05-22T04:09:42.553Z,18.31
2019-05-22T04:12:44.818Z,18.34
2019-05-22T04:15:47.377Z,18.34
2019-05-22T04:18:49.498Z,18.37
2019-05-22T04:21:51.538Z,18.37
2019-05-22T04:24:53.443Z,18.39
2019-05-22T04:27:56.261Z,18.41
2019-05-22T04:31:00.229Z,18.39
2019-05-22T04:34:02.233Z,18.44
2019-05-22T04:37:05.109Z,18.46
2019-05-22T04:40:23.927Z,18.46
2019-05-22T04:43:29.931Z,18.50
2019-05-22T04:46:34.394Z,18.53
2019-05-22T04:49:37.125Z,18.56
2019-05-22T04:52:39.023Z,18.55
2019-05-22T04:55:41.097Z,18.58
2019-05-22T04:58:43.258Z,18.56
2019-05-22T05:01:45.794Z,18.59
2019-05-22T05:04:49.142Z,18.62
2019-05-22T05:07:51.780Z,18.66
2019-05-22T05:10:55.405Z,18.66
2019-05-22T05:13:57.939Z,18.70
2019-05-22T05:17:00.302Z,18.65
2019-05-22T05:20:05.496Z,18.68
2019-05-22T05:23:07.479Z,18.56
2019-05-22T05:26:09.496Z,18.57
2019-05-22T05:29:17.707Z,18.58
2019-05-22T05:32:19.699Z,18.55
2019-05-22T05:35:22.362Z,18.48
2019-05-22T05:38:34.109Z,18.42
2019-05-22T05:41:36.062Z,18.44
2019-05-22T05:44:37.992Z,18.34
2019-05-22T05:47:40.718Z,18.32
2019-05-22T05:51:06.687Z,18.36
2019-05-22T05:54:12.143Z,18.42
2019-05-22T05:57:37.056Z,18.45
2019-05-22T06:00:44.456Z,18.68
2019-05-22T06:03:44.737Z,18.81
2019-05-22T06:06:54.575Z,18.90
2019-05-22T06:10:17.358Z,18.97
2019-05-22T06:13:19.878Z,18.82
2019-05-22T06:16:26.226Z,18.63
2019-05-22T06:19:30.062Z,18.53
2019-05-22T06:22:32.181Z,18.44
2019-05-22T06:25:35.844Z,18.44
2019-05-22T06:28:41.983Z,18.44
2019-05-22T06:31:47.657Z,18.46
2019-05-22T06:34:51.008Z,18.44
2019-05-22T06:38:11.908Z,18.42
2019-05-22T06:41:13.912Z,18.40
2019-05-22T06:44:28.543Z,18.34
2019-05-22T06:47:32.156Z,18.34
2019-05-22T06:50:34.263Z,18.27
2019-05-22T06:53:36.204Z,18.24
2019-05-22T06:56:38.156Z,18.20
2019-05-22T06:59:40.555Z,18.17
2019-05-22T07:02:43.163Z,18.24
2019-05-22T07:05:45.923Z,18.26
2019-05-22T07:08:48.272Z,18.29
2019-05-22T07:11:50.703Z,18.36
2019-05-22T07:15:04.116Z,18.53
2019-05-22T07:18:12.248Z,18.56
2019-05-22T07:21:12.615Z,18.61
2019-05-22T07:24:14.941Z,18.68
2019-05-22T07:27:23.710Z,18.78
2019-05-22T07:30:26.096Z,18.85
2019-05-22T07:33:28.421Z,18.85
2019-05-22T07:36:32.547Z,18.74
2019-05-22T07:39:34.536Z,18.74
2019-05-22T07:42:37.165Z,18.71
2019-05-22T07:45:40.840Z,18.65
2019-05-22T07:48:43.627Z,18.64
2019-05-22T07:51:56.144Z,18.65
2019-05-22T07:54:51.706Z,18.57
2019-05-22T07:58:00.139Z,18.53
2019-05-22T08:01:03.140Z,18.64
2019-05-22T08:04:05.303Z,18.66
2019-05-22T08:07:08.626Z,18.77
2019-05-22T08:10:13.293Z,18.78
2019-05-22T08:13:15.940Z,18.70
2019-05-22T08:16:18.943Z,18.78
2019-05-22T08:19:22.545Z,18.83
2019-05-22T08:22:24.938Z,18.95
2019-05-22T08:25:27.070Z,19.06
2019-05-22T08:28:31.469Z,19.20
2019-05-22T08:31:34.181Z,19.21
2019-05-22T08:34:36.517Z,19.28
2019-05-22T08:37:39.940Z,19.43
2019-05-22T08:40:44.882Z,19.46
2019-05-22T08:44:12.048Z,19.49
2019-05-22T08:46:51.312Z,19.42
2019-05-22T08:49:53.578Z,19.31
2019-05-22T08:52:55.734Z,19.37
2019-05-22T08:55:58.422Z,19.44
2019-05-22T08:59:18.326Z,19.52
2019-05-22T09:02:05.700Z,19.58
2019-05-22T09:05:09.579Z,19.79
2019-05-22T09:08:12.786Z,19.95
2019-05-22T09:11:14.859Z,20.07
2019-05-22T09:14:18.294Z,20.08
2019-05-22T09:17:21.511Z,20.17
2019-05-22T09:20:24.096Z,20.32
2019-05-22T09:23:26.142Z,20.47
2019-05-22T09:26:29.256Z,20.49
2019-05-22T09:29:31.336Z,20.54
2019-05-22T09:32:33.436Z,20.66
2019-05-22T09:35:35.498Z,20.51
2019-05-22T09:38:38.313Z,20.51
2019-05-22T09:41:40.199Z,20.47
2019-05-22T09:44:42.310Z,20.35
2019-05-22T09:47:44.180Z,20.44
2019-05-22T09:50:46.273Z,20.50
2019-05-22T09:53:48.611Z,20.51
2019-05-22T09:56:52.220Z,20.52
2019-05-22T09:59:54.225Z,20.71
2019-05-22T10:02:56.226Z,20.88
2019-05-22T10:05:58.710Z,20.92
2019-05-22T10:09:00.680Z,21.01
2019-05-22T10:12:04.289Z,21.01
2019-05-22T10:15:09.141Z,20.94
2019-05-22T10:18:11.380Z,20.94
2019-05-22T10:21:13.660Z,21.01
2019-05-22T10:24:16.445Z,20.92
2019-05-22T10:27:20.275Z,20.93
2019-05-22T10:30:24.874Z,20.93
2019-05-22T10:33:27.207Z,20.78
2019-05-22T10:36:29.649Z,20.76
2019-05-22T10:39:32.275Z,20.86
2019-05-22T10:42:34.183Z,20.94
2019-05-22T10:45:36.829Z,20.93
2019-05-22T10:48:40.361Z,20.83
2019-05-22T10:51:42.674Z,21.06
2019-05-22T10:54:45.497Z,21.06
2019-05-22T10:57:47.439Z,21.38
2019-05-22T11:00:50.252Z,21.73
2019-05-22T11:03:53.069Z,21.63
2019-05-22T11:06:55.536Z,21.53
2019-05-22T11:09:57.636Z,21.39
2019-05-22T11:12:59.622Z,21.33
2019-05-22T11:16:02.237Z,21.28
2019-05-22T11:19:05.382Z,21.18
2019-05-22T11:22:09.382Z,21.02
2019-05-22T11:25:14.423Z,21.20
2019-05-22T11:28:16.355Z,21.10
2019-05-22T11:31:18.390Z,21.29
2019-05-22T11:34:20.322Z,21.60
2019-05-22T11:37:22.358Z,21.60
2019-05-22T11:40:25.741Z,21.78
2019-05-22T11:43:28.471Z,22.11
2019-05-22T11:46:30.520Z,22.52
2019-05-22T11:49:32.994Z,22.94
2019-05-22T11:52:35.789Z,23.31
2019-05-22T11:55:44.949Z,23.46
2019-05-22T11:58:42.231Z,23.87
2019-05-22T12:01:44.257Z,24.02
2019-05-22T12:04:48.979Z,24.07
2019-05-22T12:07:52.479Z,23.79
2019-05-22T12:10:55.496Z,23.49
2019-05-22T12:13:57.781Z,23.11
2019-05-22T12:16:59.719Z,22.76
2019-05-22T12:20:04.337Z,22.50
2019-05-22T12:23:06.627Z,22.02
2019-05-22T12:26:08.750Z,21.30
2019-05-22T12:29:10.620Z,20.76
2019-05-22T12:32:12.635Z,20.38
2019-05-22T12:35:15.205Z,20.30
2019-05-22T12:38:18.422Z,20.17
2019-05-22T12:41:21.595Z,19.99
2019-05-22T12:44:25.188Z,19.89
2019-05-22T12:47:27.326Z,19.73
2019-05-22T12:50:31.342Z,19.75
2019-05-22T12:53:35.500Z,19.67
2019-05-22T12:56:37.421Z,19.73
2019-05-22T12:59:40.308Z,19.71
2019-05-22T13:02:43.251Z,19.77
2019-05-22T13:05:46.685Z,19.73
2019-05-22T13:08:49.071Z,19.74
2019-05-22T13:11:51.153Z,19.74
2019-05-22T13:15:08.498Z,19.58
2019-05-22T13:17:59.477Z,19.34
2019-05-22T13:21:02.603Z,19.22
2019-05-22T13:24:18.724Z,19.15
2019-05-22T13:27:23.118Z,19.01
2019-05-22T13:30:28.472Z,18.72
2019-05-22T13:33:31.296Z,18.75
2019-05-22T13:36:36.012Z,18.85
2019-05-22T13:39:38.664Z,18.82
2019-05-22T13:42:43.098Z,18.62
2019-05-22T13:45:45.422Z,18.41
2019-05-22T13:48:47.761Z,18.49
2019-05-22T13:51:50.720Z,18.47
2019-05-22T13:54:52.748Z,18.43
2019-05-22T13:57:54.905Z,18.30
2019-05-22T14:00:57.227Z,18.16
2019-05-22T14:04:03.111Z,17.96
2019-05-22T14:07:05.762Z,17.74
2019-05-22T14:10:09.517Z,17.61
2019-05-22T14:13:12.137Z,17.59
2019-05-22T14:16:14.528Z,17.65
2019-05-22T14:19:16.579Z,17.63
2019-05-22T14:22:18.653Z,17.56
2019-05-22T14:25:24.467Z,17.56
2019-05-22T14:28:28.833Z,17.39
2019-05-22T14:31:33.323Z,17.26
2019-05-22T14:34:39.075Z,17.24
2019-05-22T14:37:42.804Z,17.24
2019-05-22T14:40:44.876Z,17.24
2019-05-22T14:43:46.856Z,17.15
2019-05-22T14:46:49.024Z,17.09
2019-05-22T14:49:52.148Z,16.97
2019-05-22T14:52:56.631Z,16.85
2019-05-22T14:55:59.337Z,16.80
2019-05-22T14:59:01.825Z,16.74
2019-05-22T15:02:03.745Z,16.70
2019-05-22T15:05:07.585Z,16.63
2019-05-22T15:08:10.271Z,16.60
2019-05-22T15:11:14.645Z,16.63
2019-05-22T15:14:18.393Z,16.72
2019-05-22T15:17:31.589Z,16.92
2019-05-22T15:20:27.888Z,17.08
2019-05-22T15:23:31.996Z,17.16
2019-05-22T15:26:36.418Z,17.09
2019-05-22T15:29:39.943Z,17.01
2019-05-22T15:32:42.739Z,17.02
2019-05-22T15:35:45.914Z,16.99
2019-05-22T15:38:49.468Z,16.95
2019-05-22T15:41:53.547Z,16.91
2019-05-22T15:44:55.790Z,16.89
2019-05-22T15:48:01.508Z,16.85
2019-05-22T15:51:05.384Z,16.71
2019-05-22T15:54:07.729Z,16.80
2019-05-22T15:57:12.356Z,16.89
2019-05-22T16:00:16.461Z,16.90
2019-05-22T16:03:20.570Z,16.83
2019-05-22T16:06:27.885Z,16.86
2019-05-22T16:09:31.028Z,16.91
2019-05-22T16:12:33.124Z,16.79
2019-05-22T16:15:36.027Z,16.65
2019-05-22T16:18:40.998Z,16.59
2019-05-22T16:21:46.070Z,16.56
2019-05-22T16:24:50.522Z,16.55
2019-05-22T16:27:53.592Z,16.53
2019-05-22T16:30:58.697Z,16.43
2019-05-22T16:34:01.295Z,16.33
2019-05-22T16:37:04.143Z,16.14
2019-05-22T16:40:10.709Z,16.05
2019-05-22T16:43:14.889Z,16.06
2019-05-22T16:46:18.596Z,15.96
2019-05-22T16:49:24.030Z,15.94
2019-05-22T16:52:30.790Z,15.93
2019-05-22T16:55:37.497Z,15.96
2019-05-22T16:58:41.790Z,15.85
2019-05-22T17:01:58.815Z,15.86
2019-05-22T17:04:51.586Z,15.85
2019-05-22T17:07:55.997Z,15.84
2019-05-22T17:11:01.068Z,15.73
2019-05-22T17:14:06.257Z,15.65
2019-05-22T17:17:11.479Z,15.61
2019-05-22T17:20:20.078Z,15.59
2019-05-22T17:23:25.273Z,15.61
2019-05-22T17:26:30.943Z,15.57
2019-05-22T17:29:33.987Z,15.62
2019-05-22T17:32:36.331Z,15.71
2019-05-22T17:35:43.566Z,15.64
2019-05-22T17:38:45.568Z,15.66
2019-05-22T17:41:48.516Z,15.59
2019-05-22T17:44:51.064Z,15.60
2019-05-22T17:47:54.971Z,15.65
2019-05-22T17:51:00.167Z,15.67
2019-05-22T17:54:02.183Z,15.65
2019-05-22T17:57:07.551Z,15.60
2019-05-22T18:00:12.847Z,15.57
2019-05-22T18:03:15.005Z,15.55
2019-05-22T18:06:16.872Z,15.41
2019-05-22T18:09:19.159Z,15.35
2019-05-22T18:12:22.937Z,15.31
2019-05-22T18:15:26.386Z,15.27
2019-05-22T18:18:28.840Z,15.19
2019-05-22T18:21:33.430Z,15.23
2019-05-22T18:24:35.786Z,15.24
2019-05-22T18:27:42.248Z,15.13
2019-05-22T18:30:46.031Z,15.20
2019-05-22T18:33:47.963Z,15.22
2019-05-22T18:36:53.567Z,15.24
2019-05-22T18:39:56.019Z,15.19
2019-05-22T18:43:00.368Z,15.20
2019-05-22T18:46:02.495Z,15.18
2019-05-22T18:49:04.685Z,15.20
2019-05-22T18:52:08.189Z,15.25
2019-05-22T18:55:10.098Z,15.27
2019-05-22T18:58:12.538Z,15.34
2019-05-22T19:01:16.411Z,15.38
2019-05-22T19:04:18.969Z,15.37
2019-05-22T19:07:22.130Z,15.33
2019-05-22T19:10:25.704Z,15.28
2019-05-22T19:13:27.580Z,15.20
2019-05-22T19:16:32.349Z,15.16
2019-05-22T19:19:35.217Z,15.08
2019-05-22T19:22:39.567Z,14.98
2019-05-22T19:25:41.858Z,14.90
2019-05-22T19:28:45.257Z,14.84
2019-05-22T19:31:49.105Z,14.76
2019-05-22T19:34:51.040Z,14.67
2019-05-22T19:37:54.372Z,14.58
2019-05-22T19:40:58.087Z,14.54
2019-05-22T19:44:01.849Z,14.54
2019-05-22T19:47:06.574Z,14.55
2019-05-22T19:50:22.352Z,14.52
2019-05-22T19:53:19.321Z,14.49
2019-05-22T19:56:22.899Z,14.48
2019-05-22T19:59:24.076Z,14.44
2019-05-22T20:02:26.227Z,14.39
2019-05-22T20:05:29.220Z,14.40
2019-05-22T20:08:31.783Z,14.39
2019-05-22T20:11:33.808Z,14.40
2019-05-22T20:14:38.401Z,14.41
2019-05-22T20:17:42.132Z,14.38
2019-05-22T20:20:44.901Z,14.37
2019-05-22T20:23:47.178Z,14.40
2019-05-22T20:26:49.393Z,14.36
2019-05-22T20:29:53.178Z,14.29
2019-05-22T20:32:57.303Z,14.26
2019-05-22T20:35:59.549Z,14.27
2019-05-22T20:39:01.560Z,14.26
2019-05-22T20:42:06.410Z,14.23
2019-05-22T20:45:10.268Z,14.23
2019-05-22T20:48:23.315Z,14.25
2019-05-22T20:51:26.521Z,14.24
2019-05-22T20:54:30.066Z,14.22
2019-05-22T20:57:33.473Z,14.24
2019-05-22T21:00:36.310Z,14.31
2019-05-22T21:03:38.544Z,14.31
2019-05-22T21:06:48.006Z,14.32
2019-05-22T21:09:50.033Z,14.33
2019-05-22T21:12:53.273Z,14.31
2019-05-22T21:15:55.427Z,14.33
2019-05-22T21:18:57.368Z,14.29
2019-05-22T21:22:00.455Z,14.29
2019-05-22T21:25:04.113Z,14.34
2019-05-22T21:28:06.592Z,14.29
2019-05-22T21:31:09.669Z,14.34
2019-05-22T21:34:12.307Z,14.36
2019-05-22T21:37:17.516Z,14.35
2019-05-22T21:40:22.114Z,14.32
2019-05-22T21:43:24.262Z,14.38
2019-05-22T21:46:26.232Z,14.35
2019-05-22T21:49:29.237Z,14.39
2019-05-22T21:52:33.618Z,14.36
2019-05-22T21:55:36.228Z,14.37
2019-05-22T21:58:38.732Z,14.40
2019-05-22T22:01:52.390Z,14.37
2019-05-22T22:04:54.740Z,14.34
2019-05-22T22:07:57.929Z,14.27
2019-05-22T22:11:01.191Z,14.23
2019-05-22T22:14:04.581Z,14.23
2019-05-22T22:17:08.415Z,14.29
2019-05-22T22:20:11.293Z,14.29
2019-05-22T22:23:14.996Z,14.33
2019-05-22T22:26:25.417Z,14.33
2019-05-22T22:29:21.555Z,14.28
2019-05-22T22:32:25.424Z,14.21
2019-05-22T22:35:27.547Z,14.22
2019-05-22T22:38:32.505Z,14.23
2019-05-22T22:41:34.814Z,14.17
2019-05-22T22:44:38.266Z,14.14
2019-05-22T22:47:44.957Z,14.11
2019-05-22T22:50:47.330Z,14.13
2019-05-22T22:53:49.937Z,14.17
2019-05-22T22:56:52.501Z,14.13
2019-05-22T22:59:55.015Z,14.16
2019-05-22T23:02:58.168Z,14.20
2019-05-22T23:06:00.282Z,14.17
2019-05-22T23:09:03.958Z,14.22
2019-05-22T23:12:07.581Z,14.21
2019-05-22T23:15:13.061Z,14.22
2019-05-22T23:18:31.220Z,14.23
2019-05-22T23:21:33.057Z,14.18
2019-05-22T23:24:38.041Z,14.13
2019-05-22T23:27:40.061Z,14.12
2019-05-22T23:30:42.093Z,14.06
2019-05-22T23:33:45.763Z,14.10
2019-05-22T23:36:48.142Z,14.09
2019-05-22T23:39:52.547Z,14.14
2019-05-22T23:42:56.447Z,14.16
2019-05-22T23:45:58.460Z,14.18
2019-05-22T23:49:00.539Z,14.22
2019-05-22T23:52:04.058Z,14.22
2019-05-22T23:55:09.343Z,14.14
2019-05-22T23:58:12.501Z,14.14
